Time;durP1;ratioP1;P1;durP2;ratioP2;P2;SDS_P1;SDS_P2;PMS_P1;PMS_P2;Temp;Humidity;BMP_temperature;BMP_pressure;BME280_temperature;BME280_humidity;BME280_pressure;Samples;Min_cycle;Max_cycle;Signal;HPM_P1;HPM_P2
2022/11/30 00:01:59;;;;;;;30.35;22.52;;;8.10;99.90;;;;;;4821984;29;20517;-80
2022/11/30 00:04:24;;;;;;;31.42;22.08;;;7.30;99.90;;;;;;4823355;29;20037;-80
2022/11/30 00:06:55;;;;;;;27.40;22.25;;;7.30;99.90;;;;;;4821243;29;20046;-81
2022/11/30 00:09:21;;;;;;;25.40;21.08;;;7.30;99.90;;;;;;4822080;29;20050;-80
2022/11/30 00:11:46;;;;;;;26.55;21.60;;;7.30;99.90;;;;;;4802982;29;20054;-81
2022/11/30 00:14:12;;;;;;;26.55;20.75;;;7.30;99.90;;;;;;4822530;29;20042;-80
2022/11/30 00:16:37;;;;;;;33.72;22.98;;;7.30;99.90;;;;;;4821969;29;20045;-80
2022/11/30 00:19:03;;;;;;;26.63;21.13;;;7.30;99.90;;;;;;4821579;29;20057;-80
2022/11/30 00:21:28;;;;;;;30.95;23.05;;;7.30;99.90;;;;;;4804180;29;20034;-80
2022/11/30 00:23:54;;;;;;;25.83;21.58;;;7.30;99.90;;;;;;4837400;29;20063;-80
2022/11/30 00:26:21;;;;;;;27.75;21.73;;;7.20;99.90;;;;;;4821778;29;20046;-80
2022/11/30 00:28:47;;;;;;;22.20;18.58;;;7.10;99.90;;;;;;4822895;29;20449;-82
2022/11/30 00:31:15;;;;;;;26.38;19.40;;;7.00;99.90;;;;;;4803812;29;20042;-81
2022/11/30 00:33:41;;;;;;;20.50;17.27;;;6.90;99.90;;;;;;4821323;29;20042;-80
2022/11/30 00:36:10;;;;;;;23.83;19.30;;;6.80;99.90;;;;;;4835908;29;20049;-82
2022/11/30 00:38:36;;;;;;;22.23;17.25;;;6.70;99.90;;;;;;4820688;29;20061;-80
2022/11/30 00:41:02;;;;;;;18.92;16.50;;;6.60;99.90;;;;;;4822137;29;20067;-81
2022/11/30 00:43:28;;;;;;;23.40;17.05;;;6.50;99.90;;;;;;4819394;29;21607;-81
2022/11/30 00:45:54;;;;;;;27.33;18.02;;;6.40;99.90;;;;;;4820296;29;20046;-81
2022/11/30 00:48:19;;;;;;;27.60;17.33;;;6.30;99.90;;;;;;4820038;29;20045;-81
2022/11/30 00:50:46;;;;;;;21.05;17.35;;;6.20;99.90;;;;;;4818524;29;20065;-80
2022/11/30 00:53:11;;;;;;;21.92;16.20;;;6.10;99.90;;;;;;4835136;29;20088;-81
2022/11/30 00:55:37;;;;;;;20.25;15.75;;;6.10;99.90;;;;;;4815993;29;20077;-80
2022/11/30 00:58:03;;;;;;;23.63;17.75;;;5.90;99.90;;;;;;4821257;29;20069;-80
2022/11/30 01:00:28;;;;;;;24.63;17.58;;;5.90;99.90;;;;;;4837159;29;20064;-80
2022/11/30 01:02:55;;;;;;;23.10;17.90;;;5.90;99.90;;;;;;4839905;29;20041;-80
2022/11/30 01:05:20;;;;;;;29.10;21.13;;;5.90;99.90;;;;;;4822497;29;20043;-79
2022/11/30 01:07:46;;;;;;;36.58;23.65;;;6.00;99.90;;;;;;4821975;29;20776;-81
2022/11/30 01:10:12;;;;;;;31.38;23.00;;;6.00;99.90;;;;;;4839335;29;20077;-79
2022/11/30 01:12:37;;;;;;;31.48;22.98;;;6.10;99.90;;;;;;4823143;29;20042;-80
2022/11/30 01:15:03;;;;;;;33.10;24.55;;;6.20;99.90;;;;;;4823773;29;20053;-80
2022/11/30 01:17:28;;;;;;;38.13;25.33;;;6.20;99.90;;;;;;4823545;29;20038;-80
2022/11/30 01:19:54;;;;;;;37.03;24.80;;;6.30;99.90;;;;;;4840355;29;20056;-79
2022/11/30 01:22:20;;;;;;;34.97;24.77;;;6.30;99.90;;;;;;4836723;29;20038;-80
2022/11/30 01:24:45;;;;;;;30.42;22.80;;;6.30;99.90;;;;;;4837834;29;20049;-80
2022/11/30 01:27:11;;;;;;;29.80;24.13;;;6.30;99.90;;;;;;4822584;29;20052;-79
2022/11/30 01:29:36;;;;;;;35.15;23.23;;;6.40;99.90;;;;;;4824654;29;20077;-80
2022/11/30 01:32:02;;;;;;;38.67;26.63;;;6.40;99.90;;;;;;4836658;29;20046;-80
2022/11/30 01:34:27;;;;;;;32.58;24.83;;;6.40;99.90;;;;;;4824456;29;20050;-80
2022/11/30 01:36:53;;;;;;;38.95;27.17;;;6.40;99.90;;;;;;4820889;29;20046;-79
2022/11/30 01:39:18;;;;;;;36.60;25.63;;;6.40;99.90;;;;;;4820229;29;20048;-79
2022/11/30 01:41:44;;;;;;;39.03;26.63;;;6.40;99.90;;;;;;4836755;29;20046;-79
2022/11/30 01:44:15;;;;;;;32.72;23.20;;;6.50;99.90;;;;;;4823775;29;20050;-81
2022/11/30 01:47:00;;;;;;;33.15;24.58;;;6.50;99.90;;;;;;4837177;29;20102;-80
2022/11/30 01:49:38;;;;;;;36.15;25.10;;;6.40;99.90;;;;;;4836770;29;20076;-80
2022/11/30 01:52:12;;;;;;;35.25;24.58;;;6.40;99.90;;;;;;4821943;29;20050;-79
2022/11/30 01:54:43;;;;;;;35.78;25.38;;;6.40;99.90;;;;;;4822064;29;20053;-79
2022/11/30 01:57:30;;;;;;;37.63;25.33;;;6.40;99.90;;;;;;4823520;29;20059;-80
2022/11/30 01:59:57;;;;;;;;;;;6.50;99.90;;;;;;4806696;29;20037;-79
2022/11/30 02:02:30;;;;;;;31.58;24.20;;;6.50;99.90;;;;;;4821640;29;19925;-80
2022/11/30 02:04:56;;;;;;;35.95;26.15;;;6.50;99.90;;;;;;4818236;29;20090;-80
2022/11/30 02:07:22;;;;;;;30.42;24.35;;;6.50;99.90;;;;;;4802146;29;20038;-79
2022/11/30 02:09:47;;;;;;;33.30;24.20;;;6.60;99.90;;;;;;4821374;29;20042;-79
2022/11/30 02:12:36;;;;;;;30.33;25.02;;;6.50;99.90;;;;;;4819762;29;20050;-79
2022/11/30 02:15:10;;;;;;;32.15;25.67;;;6.50;99.90;;;;;;4823329;29;20067;-80
2022/11/30 02:17:56;;;;;;;35.20;24.08;;;6.60;99.90;;;;;;4821101;29;20059;-79
2022/11/30 02:20:34;;;;;;;32.40;24.40;;;6.60;99.90;;;;;;4823827;29;20065;-80
2022/11/30 02:23:23;;;;;;;29.08;23.48;;;6.60;99.90;;;;;;4821461;29;20049;-80
2022/11/30 02:26:11;;;;;;;35.00;24.90;;;6.60;99.90;;;;;;4824758;29;20560;-79
2022/11/30 02:29:14;;;;;;;33.17;23.20;;;6.70;99.90;;;;;;4833222;29;20054;-80
2022/11/30 02:31:48;;;;;;;33.25;25.85;;;6.70;99.90;;;;;;4820364;29;20049;-80
2022/11/30 02:34:16;;;;;;;32.55;24.15;;;6.70;99.90;;;;;;4822952;29;20045;-80
2022/11/30 02:36:43;;;;;;;33.42;24.33;;;6.60;99.90;;;;;;4822352;29;20064;-80
2022/11/30 02:39:10;;;;;;;34.10;25.08;;;6.70;99.90;;;;;;4821154;29;20905;-80
2022/11/30 02:41:37;;;;;;;45.25;27.08;;;6.70;99.90;;;;;;4824581;29;20149;-81
2022/11/30 02:44:04;;;;;;;33.80;25.60;;;6.70;99.90;;;;;;4821885;29;20052;-79
2022/11/30 02:46:51;;;;;;;33.45;25.83;;;6.70;99.90;;;;;;4819729;29;20041;-79
2022/11/30 02:49:38;;;;;;;30.65;23.98;;;6.70;99.90;;;;;;4820073;29;20033;-79
2022/11/30 02:52:05;;;;;;;31.33;24.45;;;6.70;99.90;;;;;;4820819;29;20054;-79
2022/11/30 02:54:32;;;;;;;30.83;24.58;;;6.70;99.90;;;;;;4805997;29;20049;-80
2022/11/30 02:56:57;;;;;;;32.38;24.73;;;6.70;99.90;;;;;;4832654;29;20128;-80
2022/11/30 02:59:23;;;;;;;34.42;25.73;;;6.70;99.90;;;;;;4819275;29;20129;-80
2022/11/30 03:01:49;;;;;;;31.67;25.17;;;6.70;99.90;;;;;;4835540;29;20046;-80
2022/11/30 03:04:14;;;;;;;35.65;26.33;;;6.80;99.90;;;;;;4820986;29;20050;-80
2022/11/30 03:06:40;;;;;;;33.95;25.15;;;6.70;99.90;;;;;;4820881;29;20046;-79
2022/11/30 03:09:05;;;;;;;31.08;24.98;;;6.70;99.90;;;;;;4819665;29;20041;-80
2022/11/30 03:11:31;;;;;;;34.90;25.75;;;6.80;99.90;;;;;;4822438;29;20071;-80
2022/11/30 03:13:57;;;;;;;32.95;24.80;;;6.80;99.90;;;;;;4837635;29;20054;-80
2022/11/30 03:16:22;;;;;;;33.42;25.15;;;6.80;99.90;;;;;;4820880;29;20056;-80
2022/11/30 03:18:48;;;;;;;36.70;27.30;;;6.80;99.90;;;;;;4821917;29;20061;-80
2022/11/30 03:21:13;;;;;;;29.98;25.73;;;6.80;99.90;;;;;;4822867;29;20037;-80
2022/11/30 03:23:39;;;;;;;38.03;28.15;;;6.70;99.90;;;;;;4822999;29;20049;-79
2022/11/30 03:26:07;;;;;;;34.42;26.08;;;6.80;99.90;;;;;;4834113;29;20069;-80
2022/11/30 03:28:33;;;;;;;36.33;28.35;;;6.80;99.90;;;;;;4806929;29;20379;-79
2022/11/30 03:30:59;;;;;;;38.33;28.02;;;6.80;99.90;;;;;;4823937;29;20439;-80
2022/11/30 03:33:24;;;;;;;36.17;27.08;;;6.80;99.90;;;;;;4821929;29;20046;-80
2022/11/30 03:36:05;;;;;;;36.95;27.63;;;6.80;99.90;;;;;;4822209;29;20118;-80
2022/11/30 03:38:31;;;;;;;40.80;29.50;;;6.70;99.90;;;;;;4819446;29;20038;-80
2022/11/30 03:41:10;;;;;;;34.90;26.23;;;6.80;99.90;;;;;;4837283;29;20046;-80
2022/11/30 03:43:36;;;;;;;38.83;28.08;;;6.70;99.90;;;;;;4819799;29;20050;-80
2022/11/30 03:46:02;;;;;;;33.67;27.05;;;6.70;99.90;;;;;;4819806;29;20038;-80
2022/11/30 03:48:27;;;;;;;37.88;28.08;;;6.70;99.90;;;;;;4819832;29;20045;-80
2022/11/30 03:50:53;;;;;;;39.40;27.30;;;6.70;99.90;;;;;;4835906;29;20050;-80
2022/11/30 03:53:20;;;;;;;38.97;26.50;;;6.60;99.90;;;;;;4832050;29;20048;-80
2022/11/30 03:55:54;;;;;;;40.60;28.20;;;6.70;99.90;;;;;;4835026;29;20506;-80
2022/11/30 03:58:20;;;;;;;46.85;29.40;;;7.10;99.90;;;;;;4818311;29;20060;-80
2022/11/30 04:00:46;;;;;;;44.60;30.50;;;6.70;99.90;;;;;;4835113;29;20493;-80
2022/11/30 04:03:12;;;;;;;39.30;28.58;;;6.60;99.90;;;;;;4821546;29;20082;-80
2022/11/30 04:05:37;;;;;;;36.10;26.95;;;6.70;99.90;;;;;;4821328;29;20054;-80
2022/11/30 04:08:03;;;;;;;38.80;27.88;;;6.60;99.90;;;;;;4822088;29;20132;-79
2022/11/30 04:10:29;;;;;;;39.17;28.95;;;6.70;99.90;;;;;;4822050;29;20133;-79
2022/11/30 04:12:54;;;;;;;38.47;28.25;;;6.70;99.90;;;;;;4837866;29;20057;-80
2022/11/30 04:15:20;;;;;;;41.08;29.45;;;6.70;99.90;;;;;;4821176;29;20050;-79
2022/11/30 04:17:45;;;;;;;41.78;28.65;;;6.70;99.90;;;;;;4821801;29;20050;-80
2022/11/30 04:20:11;;;;;;;44.78;30.17;;;6.70;99.90;;;;;;4824172;29;20041;-79
2022/11/30 04:22:37;;;;;;;37.05;28.90;;;6.70;99.90;;;;;;4804691;29;20141;-80
2022/11/30 04:25:02;;;;;;;38.88;28.73;;;6.70;99.90;;;;;;4821567;29;20074;-80
2022/11/30 04:27:28;;;;;;;47.17;31.10;;;6.70;99.90;;;;;;4822621;29;20034;-80
2022/11/30 04:29:53;;;;;;;42.03;30.20;;;6.70;99.90;;;;;;4821209;29;20088;-80
2022/11/30 04:32:19;;;;;;;40.85;29.23;;;6.70;99.90;;;;;;4821098;29;20057;-80
2022/11/30 04:34:45;;;;;;;49.40;32.65;;;6.70;99.90;;;;;;4803396;29;20042;-79
2022/11/30 04:37:10;;;;;;;47.13;32.13;;;6.60;99.90;;;;;;4823667;29;20040;-80
2022/11/30 04:39:36;;;;;;;43.42;29.45;;;6.70;99.90;;;;;;4823444;29;20045;-79
2022/11/30 04:42:01;;;;;;;45.17;30.45;;;6.70;99.90;;;;;;4822457;29;20057;-79
2022/11/30 04:44:27;;;;;;;45.95;32.03;;;6.70;99.90;;;;;;4821287;29;20060;-80
2022/11/30 04:46:52;;;;;;;46.60;31.23;;;6.60;99.90;;;;;;4819554;29;20037;-80
2022/11/30 04:49:18;;;;;;;47.55;30.85;;;6.70;99.90;;;;;;4822293;29;20053;-80
2022/11/30 04:51:43;;;;;;;43.70;30.92;;;6.70;99.90;;;;;;4819803;29;20049;-80
2022/11/30 04:54:09;;;;;;;50.72;31.90;;;6.70;99.90;;;;;;4820583;29;20046;-79
2022/11/30 04:56:34;;;;;;;52.35;32.35;;;6.70;99.90;;;;;;4801595;29;20098;-80
2022/11/30 04:59:01;;;;;;;48.85;31.85;;;6.70;99.90;;;;;;4819051;29;20042;-79
2022/11/30 05:01:27;;;;;;;52.30;31.90;;;6.70;99.90;;;;;;4820294;29;20046;-80
2022/11/30 05:03:52;;;;;;;48.75;33.47;;;6.80;99.90;;;;;;4802194;29;20045;-80
2022/11/30 05:06:18;;;;;;;49.65;31.80;;;6.80;99.90;;;;;;4818540;29;20080;-81
2022/11/30 05:08:43;;;;;;;52.63;32.35;;;6.70;99.90;;;;;;4815955;29;20034;-80
2022/11/30 05:11:09;;;;;;;58.67;33.28;;;6.80;99.90;;;;;;4799726;29;20106;-80
2022/11/30 05:13:34;;;;;;;47.35;31.85;;;6.80;99.90;;;;;;4820081;29;20046;-80
2022/11/30 05:16:00;;;;;;;63.40;32.35;;;6.80;99.90;;;;;;4817116;29;20132;-80
2022/11/30 05:18:26;;;;;;;56.67;33.78;;;6.80;99.90;;;;;;4814022;29;20046;-81
2022/11/30 05:20:52;;;;;;;53.38;32.25;;;6.80;99.90;;;;;;4815653;29;20045;-81
2022/11/30 05:23:18;;;;;;;60.42;34.33;;;6.80;99.90;;;;;;4815282;29;20038;-81
2022/11/30 05:25:44;;;;;;;56.08;32.85;;;6.80;99.90;;;;;;4804916;29;20046;-81
2022/11/30 05:28:10;;;;;;;53.50;32.83;;;6.80;99.90;;;;;;4796781;29;20486;-84
2022/11/30 05:30:39;;;;;;;59.75;34.13;;;6.80;99.90;;;;;;4800044;29;20618;-84
2022/11/30 05:33:05;;;;;;;51.15;31.15;;;6.80;99.90;;;;;;4817990;29;20115;-84
2022/11/30 05:35:30;;;;;;;53.67;31.70;;;6.80;99.90;;;;;;4824690;29;20038;-84
2022/11/30 05:37:56;;;;;;;56.03;31.73;;;6.80;99.90;;;;;;4821592;29;20092;-83
2022/11/30 05:40:34;;;;;;;51.90;31.52;;;6.80;99.90;;;;;;4819017;29;20045;-84
2022/11/30 05:43:03;;;;;;;49.25;29.10;;;6.80;99.90;;;;;;4813060;29;20058;-81
2022/11/30 05:45:29;;;;;;;48.67;29.08;;;6.80;99.90;;;;;;4836958;29;20045;-81
2022/11/30 05:47:55;;;;;;;46.75;28.88;;;6.80;99.90;;;;;;4824127;29;20038;-82
2022/11/30 05:50:20;;;;;;;47.00;29.50;;;6.80;99.90;;;;;;4807043;29;20045;-81
2022/11/30 05:52:46;;;;;;;48.22;28.55;;;6.80;99.90;;;;;;4811500;29;20046;-81
2022/11/30 05:55:12;;;;;;;42.92;28.20;;;6.80;99.90;;;;;;4826178;29;20046;-81
2022/11/30 05:57:38;;;;;;;42.63;27.58;;;6.80;99.90;;;;;;4825262;29;20054;-82
2022/11/30 06:00:07;;;;;;;44.50;28.08;;;6.80;99.90;;;;;;4825487;29;20234;-82
2022/11/30 06:02:33;;;;;;;44.67;26.20;;;6.80;99.90;;;;;;4836067;29;20042;-83
2022/11/30 06:05:52;;;;;;;45.17;28.00;;;6.80;99.90;;;;;;4835906;29;20091;-84
2022/11/30 06:11:59;;;;;;;42.20;27.02;;;6.80;99.90;;;;;;4838455;29;20503;-83
2022/11/30 06:14:34;;;;;;;41.35;27.10;;;6.80;99.90;;;;;;4823336;29;20042;-84
2022/11/30 06:17:00;;;;;;;;;;;7.10;99.90;;;;;;4843609;29;20077;-83
2022/11/30 06:19:26;;;;;;;45.20;26.58;;;6.80;99.90;;;;;;4822934;29;19928;-84
2022/11/30 06:21:51;;;;;;;42.70;27.38;;;6.80;99.90;;;;;;4835765;29;20140;-84
2022/11/30 06:24:17;;;;;;;47.78;27.85;;;6.90;99.90;;;;;;4805963;29;20066;-84
2022/11/30 06:26:54;;;;;;;45.47;26.85;;;6.80;99.90;;;;;;4808140;29;20577;-84
2022/11/30 06:29:20;;;;;;;43.63;24.85;;;7.70;99.90;;;;;;4820972;29;20073;-84
2022/11/30 06:31:46;;;;;;;40.17;25.17;;;6.80;99.90;;;;;;4821028;29;20072;-84
2022/11/30 06:34:11;;;;;;;37.63;24.00;;;7.60;99.90;;;;;;4820583;29;20481;-84
2022/11/30 06:36:37;;;;;;;40.83;23.25;;;6.80;99.90;;;;;;4823347;29;20049;-85
2022/11/30 06:39:20;;;;;;;43.28;25.08;;;6.80;99.90;;;;;;4823237;29;20045;-84
2022/11/30 06:41:45;;;;;;;42.90;23.95;;;6.80;99.90;;;;;;4821488;29;20042;-83
2022/11/30 06:44:11;;;;;;;41.60;24.80;;;6.80;99.90;;;;;;4819361;29;20058;-84
2022/11/30 06:46:37;;;;;;;40.88;23.60;;;6.80;99.90;;;;;;4825309;29;20046;-83
2022/11/30 06:49:08;;;;;;;44.58;24.90;;;6.80;99.90;;;;;;4805323;29;20125;-84
2022/11/30 06:51:36;;;;;;;40.58;24.67;;;7.50;99.90;;;;;;4836596;29;20061;-83
2022/11/30 06:54:01;;;;;;;39.78;25.10;;;6.80;99.90;;;;;;4807451;29;20053;-83
2022/11/30 06:56:27;;;;;;;42.78;24.48;;;6.80;99.90;;;;;;4827412;29;20565;-84
2022/11/30 06:58:53;;;;;;;41.30;23.20;;;6.80;99.90;;;;;;4827483;29;20124;-83
2022/11/30 07:01:18;;;;;;;42.10;24.95;;;6.70;99.90;;;;;;4825242;29;20058;-83
2022/11/30 07:03:44;;;;;;;44.58;24.90;;;6.70;99.90;;;;;;4822714;29;20046;-83
2022/11/30 07:06:12;;;;;;;39.35;24.40;;;6.80;99.90;;;;;;4837381;29;20424;-82
2022/11/30 07:08:38;;;;;;;39.58;23.25;;;6.80;99.90;;;;;;4807131;29;20049;-82
2022/11/30 07:11:04;;;;;;;40.85;24.23;;;6.80;99.90;;;;;;4824127;29;20069;-82
2022/11/30 07:13:30;;;;;;;45.28;23.25;;;6.80;99.90;;;;;;4809460;29;20042;-82
2022/11/30 07:15:56;;;;;;;37.30;22.85;;;6.70;99.90;;;;;;4810319;29;20079;-82
2022/11/30 07:18:22;;;;;;;42.83;23.23;;;6.70;99.90;;;;;;4827482;29;20044;-82
2022/11/30 07:20:47;;;;;;;47.85;25.02;;;6.70;99.90;;;;;;4826628;29;20053;-82
2022/11/30 07:26:08;;;;;;;42.00;24.10;;;6.70;99.90;;;;;;4827414;29;20178;-82
2022/11/30 07:28:39;;;;;;;43.22;25.27;;;6.80;99.90;;;;;;4808191;29;20049;-82
2022/11/30 07:31:16;;;;;;;47.10;24.60;;;6.70;99.90;;;;;;4826288;29;20133;-82
2022/11/30 07:33:47;;;;;;;42.63;23.50;;;6.70;99.90;;;;;;4837791;29;20076;-85
2022/11/30 07:36:13;;;;;;;44.42;23.77;;;6.70;99.90;;;;;;4821432;29;20482;-83
2022/11/30 07:38:38;;;;;;;42.13;23.33;;;6.70;99.90;;;;;;4810052;29;20082;-83
2022/11/30 07:41:04;;;;;;;46.70;24.48;;;6.70;99.90;;;;;;4794802;29;20512;-83
2022/11/30 07:43:30;;;;;;;40.08;23.25;;;6.70;99.90;;;;;;4810210;29;20088;-83
2022/11/30 07:45:56;;;;;;;38.05;22.27;;;6.70;99.90;;;;;;4815275;29;20041;-83
2022/11/30 07:48:21;;;;;;;38.63;22.33;;;6.70;99.90;;;;;;4808698;29;20088;-83
2022/11/30 07:50:48;;;;;;;38.72;21.80;;;6.80;99.90;;;;;;4810167;29;20045;-83
2022/11/30 07:53:14;;;;;;;36.67;20.40;;;6.70;99.90;;;;;;4810845;29;20087;-83
2022/11/30 07:55:41;;;;;;;37.85;21.15;;;6.70;99.90;;;;;;4810705;29;20057;-83
2022/11/30 07:58:06;;;;;;;44.53;22.48;;;6.70;99.90;;;;;;4810529;29;20156;-83
2022/11/30 08:00:32;;;;;;;37.13;21.25;;;6.70;99.90;;;;;;4811270;29;20053;-83
2022/11/30 08:02:57;;;;;;;35.30;20.95;;;6.70;99.90;;;;;;4815173;29;20568;-82
2022/11/30 08:05:23;;;;;;;34.28;20.02;;;6.70;99.90;;;;;;4824263;29;20049;-83
2022/11/30 08:07:52;;;;;;;41.30;22.35;;;6.70;99.90;;;;;;4802130;29;20110;-83
2022/11/30 08:10:20;;;;;;;30.75;20.48;;;6.70;99.90;;;;;;4835508;29;20045;-83
2022/11/30 08:12:46;;;;;;;30.73;20.30;;;6.70;99.90;;;;;;4815062;29;20057;-83
2022/11/30 08:15:12;;;;;;;31.35;19.42;;;6.70;99.90;;;;;;4794352;29;20049;-83
2022/11/30 08:17:43;;;;;;;31.38;20.30;;;6.60;99.90;;;;;;4808702;29;20054;-85
2022/11/30 08:20:10;;;;;;;30.70;18.92;;;6.70;99.90;;;;;;4809954;29;20049;-84
2022/11/30 08:22:36;;;;;;;27.30;16.95;;;6.70;99.90;;;;;;4809805;29;20050;-84
2022/11/30 08:25:01;;;;;;;29.27;18.20;;;6.70;99.90;;;;;;4808126;29;20038;-84
2022/11/30 08:27:28;;;;;;;29.88;19.50;;;6.70;99.90;;;;;;4805625;29;20547;-84
2022/11/30 08:29:54;;;;;;;30.90;18.23;;;6.70;99.90;;;;;;4796306;29;20046;-84
2022/11/30 08:32:20;;;;;;;26.20;17.40;;;6.70;99.90;;;;;;4793443;29;20046;-84
2022/11/30 08:34:46;;;;;;;25.27;17.73;;;6.70;99.90;;;;;;4806421;29;20482;-84
2022/11/30 08:37:11;;;;;;;25.42;17.27;;;6.70;99.90;;;;;;4817499;29;20083;-84
2022/11/30 08:39:37;;;;;;;25.75;17.83;;;6.60;99.90;;;;;;4798303;29;20124;-84
2022/11/30 08:42:03;;;;;;;26.20;17.83;;;6.70;99.90;;;;;;4807158;29;20385;-83
2022/11/30 08:44:28;;;;;;;26.70;17.83;;;6.60;99.90;;;;;;4810362;29;20520;-84
2022/11/30 08:46:55;;;;;;;27.08;16.65;;;6.60;99.90;;;;;;4796483;29;20046;-84
2022/11/30 08:49:22;;;;;;;22.45;16.10;;;6.70;99.90;;;;;;4809046;29;20146;-84
2022/11/30 08:51:48;;;;;;;21.83;15.52;;;6.60;99.90;;;;;;4807241;29;20122;-85
2022/11/30 08:54:14;;;;;;;21.23;14.82;;;6.60;99.90;;;;;;4811852;29;20048;-83
2022/11/30 08:56:39;;;;;;;24.05;16.02;;;6.60;99.90;;;;;;4820459;29;20163;-83
2022/11/30 08:59:05;;;;;;;21.05;15.07;;;6.70;99.90;;;;;;4811031;29;20073;-84
2022/11/30 09:01:31;;;;;;;18.13;14.32;;;6.60;99.90;;;;;;4809090;29;20132;-83
2022/11/30 09:03:57;;;;;;;17.15;14.05;;;6.70;99.90;;;;;;4799313;29;21473;-83
2022/11/30 09:06:29;;;;;;;16.77;14.10;;;6.70;99.90;;;;;;4790387;29;20038;-83
2022/11/30 09:08:57;;;;;;;18.75;13.73;;;6.70;99.90;;;;;;4808757;29;20048;-83
2022/11/30 09:11:28;;;;;;;17.08;13.32;;;6.60;99.90;;;;;;4808628;29;20061;-83
2022/11/30 09:13:55;;;;;;;16.27;13.35;;;6.60;99.90;;;;;;4809211;29;20097;-83
2022/11/30 09:16:21;;;;;;;19.08;13.85;;;6.60;99.90;;;;;;4794908;29;20045;-83
2022/11/30 09:18:48;;;;;;;15.98;12.70;;;6.50;99.90;;;;;;4810085;29;20053;-83
2022/11/30 09:21:16;;;;;;;16.92;13.70;;;6.50;99.90;;;;;;4817069;29;20053;-83
2022/11/30 09:23:42;;;;;;;16.33;13.90;;;6.60;99.90;;;;;;4811187;29;20589;-83
2022/11/30 09:26:10;;;;;;;16.27;12.70;;;6.50;99.90;;;;;;4801971;29;20062;-82
2022/11/30 09:28:37;;;;;;;16.13;13.45;;;6.50;99.90;;;;;;4824523;29;20033;-83
2022/11/30 09:31:23;;;;;;;19.40;13.65;;;6.50;99.90;;;;;;4815931;29;20060;-83
2022/11/30 09:33:49;;;;;;;17.20;14.00;;;6.50;99.90;;;;;;4811251;29;20048;-83
2022/11/30 09:36:17;;;;;;;15.82;13.13;;;6.60;99.90;;;;;;4809667;29;20071;-83
2022/11/30 09:38:43;;;;;;;14.73;12.52;;;6.60;99.90;;;;;;4828665;29;20048;-83
2022/11/30 09:41:45;;;;;;;14.73;12.30;;;6.60;99.90;;;;;;4817183;29;20042;-82
2022/11/30 09:44:42;;;;;;;15.40;11.55;;;6.70;99.90;;;;;;4810979;29;20046;-83
2022/11/30 09:47:30;;;;;;;14.52;11.38;;;6.70;99.90;;;;;;4795010;29;20042;-83
2022/11/30 09:49:56;;;;;;;15.77;12.32;;;6.80;99.90;;;;;;4809493;29;20406;-83
2022/11/30 09:52:39;;;;;;;14.80;11.63;;;6.80;99.90;;;;;;4811386;29;20084;-83
2022/11/30 09:55:09;;;;;;;14.15;12.65;;;6.80;99.90;;;;;;4811679;29;20052;-83
2022/11/30 09:57:48;;;;;;;16.75;11.93;;;6.80;99.90;;;;;;4824093;29;20046;-83
2022/11/30 10:00:20;;;;;;;17.33;13.00;;;6.80;99.90;;;;;;4809715;29;20046;-83
2022/11/30 10:02:48;;;;;;;14.13;12.63;;;6.80;99.90;;;;;;4831802;29;20038;-83
2022/11/30 10:05:44;;;;;;;14.18;12.02;;;6.80;99.90;;;;;;4810017;29;20065;-83
2022/11/30 10:08:30;;;;;;;;;;;6.80;99.90;;;;;;4797695;29;20946;-84
2022/11/30 10:11:27;;;;;;;15.68;13.00;;;6.80;99.90;;;;;;4795422;29;19939;-83
2022/11/30 10:14:14;;;;;;;13.23;11.73;;;6.80;99.90;;;;;;4810112;29;20102;-83
2022/11/30 10:16:48;;;;;;;15.13;13.40;;;6.80;99.90;;;;;;4814992;29;20049;-83
2022/11/30 10:19:37;;;;;;;18.25;15.15;;;6.70;99.90;;;;;;4797407;29;20056;-83
2022/11/30 10:22:25;;;;;;;20.10;15.98;;;6.80;99.90;;;;;;4795507;29;20042;-83
2022/11/30 10:25:16;;;;;;;23.40;15.77;;;6.80;99.90;;;;;;4810303;29;20618;-83
2022/11/30 10:27:44;;;;;;;18.98;15.65;;;6.80;99.90;;;;;;4825073;29;20730;-83
2022/11/30 10:30:30;;;;;;;18.45;15.48;;;6.90;99.90;;;;;;4797536;29;20068;-83
2022/11/30 10:33:04;;;;;;;23.30;16.98;;;6.90;99.90;;;;;;4809756;29;20075;-84
2022/11/30 10:35:39;;;;;;;21.95;17.42;;;6.90;99.90;;;;;;4810350;29;21259;-83
2022/11/30 10:38:26;;;;;;;19.52;15.98;;;7.00;99.90;;;;;;4795584;29;20038;-83
2022/11/30 10:40:57;;;;;;;21.13;15.40;;;6.90;99.90;;;;;;4824703;29;20053;-83
2022/11/30 10:43:46;;;;;;;22.33;16.73;;;6.90;99.90;;;;;;4809519;29;20050;-83
2022/11/30 10:46:36;;;;;;;17.92;14.52;;;7.00;99.90;;;;;;4808321;29;20055;-84
2022/11/30 10:49:15;;;;;;;20.48;16.83;;;7.00;99.90;;;;;;4807624;29;20421;-83
2022/11/30 10:51:44;;;;;;;17.85;15.13;;;7.10;99.90;;;;;;4798762;29;20506;-83
2022/11/30 10:54:15;;;;;;;21.73;16.40;;;7.10;99.90;;;;;;4811381;29;21425;-83
2022/11/30 10:56:41;;;;;;;17.88;15.02;;;7.10;99.90;;;;;;4824476;29;20110;-83
2022/11/30 10:59:23;;;;;;;19.30;15.40;;;7.20;99.90;;;;;;4791924;29;20049;-83
2022/11/30 11:01:50;;;;;;;19.00;15.10;;;7.20;99.90;;;;;;4808939;29;20077;-83
2022/11/30 11:04:21;;;;;;;17.08;13.95;;;7.10;99.90;;;;;;4810213;29;20135;-84
2022/11/30 11:06:57;;;;;;;18.35;14.00;;;7.10;99.90;;;;;;4794765;29;20071;-84
2022/11/30 11:09:29;;;;;;;19.17;15.20;;;7.20;99.90;;;;;;4808347;29;20060;-84
2022/11/30 11:12:01;;;;;;;18.25;14.73;;;7.20;99.90;;;;;;4821524;29;20782;-83
2022/11/30 11:14:28;;;;;;;19.60;15.82;;;7.10;99.90;;;;;;4820584;29;20053;-83
2022/11/30 11:17:00;;;;;;;18.85;14.95;;;7.70;99.90;;;;;;4822744;29;20091;-84
2022/11/30 11:19:33;;;;;;;19.33;16.35;;;7.10;99.90;;;;;;4820664;29;20054;-83
2022/11/30 11:22:01;;;;;;;22.73;17.05;;;7.10;99.90;;;;;;4793046;29;20046;-83
2022/11/30 11:24:27;;;;;;;20.90;16.83;;;7.10;99.90;;;;;;4806683;29;20050;-83
2022/11/30 11:26:55;;;;;;;21.48;16.58;;;7.10;99.90;;;;;;4806220;29;20096;-83
2022/11/30 11:29:30;;;;;;;19.88;16.10;;;7.10;99.90;;;;;;4803719;29;20094;-83
2022/11/30 11:32:17;;;;;;;20.90;16.23;;;7.10;99.90;;;;;;4813916;29;20045;-83
2022/11/30 11:34:44;;;;;;;18.80;16.33;;;7.10;99.90;;;;;;4790738;29;20532;-83
2022/11/30 11:37:21;;;;;;;20.73;17.38;;;7.10;99.90;;;;;;4808167;29;20390;-83
2022/11/30 11:40:01;;;;;;;21.63;17.85;;;7.10;99.90;;;;;;4807471;29;20102;-83
2022/11/30 11:42:34;;;;;;;21.88;18.15;;;7.10;99.90;;;;;;4806970;29;20720;-83
2022/11/30 11:45:01;;;;;;;24.40;18.20;;;7.10;99.90;;;;;;4791873;29;20048;-83
2022/11/30 11:47:39;;;;;;;22.80;17.98;;;7.10;99.90;;;;;;4823354;29;20080;-83
2022/11/30 11:50:32;;;;;;;22.98;17.73;;;7.10;99.90;;;;;;4825454;29;20041;-83
2022/11/30 11:53:22;;;;;;;24.83;18.23;;;7.10;99.90;;;;;;4805516;29;20074;-83
2022/11/30 11:55:51;;;;;;;24.05;18.02;;;7.10;99.90;;;;;;4806470;29;20046;-83
2022/11/30 11:58:26;;;;;;;24.77;18.83;;;7.10;99.90;;;;;;4804158;29;20046;-83
2022/11/30 12:00:54;;;;;;;27.30;19.40;;;7.10;99.90;;;;;;4805316;29;20098;-84
2022/11/30 12:07:32;;;;;;;25.80;19.65;;;7.10;99.90;;;;;;4799644;29;20073;-85
2022/11/30 12:10:22;;;;;;;23.55;18.30;;;7.20;99.90;;;;;;4794246;29;21113;-85
2022/11/30 12:12:49;;;;;;;25.05;19.27;;;7.20;99.90;;;;;;4808326;29;20038;-85
2022/11/30 12:15:15;;;;;;;23.58;19.27;;;7.20;99.90;;;;;;4821824;29;20050;-82
2022/11/30 12:18:11;;;;;;;22.50;17.42;;;7.20;99.90;;;;;;4809489;29;20045;-82
2022/11/30 12:21:09;;;;;;;25.90;19.50;;;7.20;99.90;;;;;;4792022;29;22095;-82
2022/11/30 12:23:43;;;;;;;22.40;17.77;;;7.20;99.90;;;;;;4804459;29;20790;-82
2022/11/30 12:26:47;;;;;;;22.08;17.90;;;7.20;99.90;;;;;;4793223;29;20049;-82
2022/11/30 12:29:50;;;;;;;24.60;18.23;;;7.10;99.90;;;;;;4742366;29;20073;-82
2022/11/30 12:32:21;;;;;;;23.48;18.27;;;7.20;99.90;;;;;;4807844;29;20173;-82
2022/11/30 12:34:50;;;;;;;25.13;18.52;;;7.20;99.90;;;;;;4825759;29;20054;-82
2022/11/30 12:37:34;;;;;;;25.33;18.42;;;7.20;99.90;;;;;;4808172;29;20046;-82
2022/11/30 12:40:18;;;;;;;25.83;19.83;;;7.40;99.90;;;;;;4809930;29;20617;-82
2022/11/30 12:42:49;;;;;;;25.88;18.92;;;7.20;99.90;;;;;;4806985;29;20054;-82
2022/11/30 12:45:18;;;;;;;23.75;19.73;;;7.20;99.90;;;;;;4821888;29;20034;-83
2022/11/30 12:48:12;;;;;;;27.20;20.85;;;7.10;99.90;;;;;;4794311;29;20046;-83
2022/11/30 12:51:00;;;;;;;30.30;23.58;;;7.20;99.90;;;;;;4808386;29;20610;-82
2022/11/30 12:53:31;;;;;;;29.45;22.73;;;7.10;99.90;;;;;;4807748;29;20050;-83
2022/11/30 12:56:09;;;;;;;29.75;23.08;;;7.10;99.90;;;;;;4789331;29;20493;-82
2022/11/30 12:59:02;;;;;;;26.08;20.77;;;7.10;99.90;;;;;;4791349;29;20053;-82
2022/11/30 13:01:27;;;;;;;25.60;21.05;;;7.20;99.90;;;;;;4811588;29;20060;-81
2022/11/30 13:04:24;;;;;;;25.05;20.50;;;7.20;99.90;;;;;;4809107;29;20046;-82
2022/11/30 13:07:16;;;;;;;27.65;21.00;;;7.20;99.90;;;;;;4796160;29;20538;-82